createdAt,value
2023-02-11T00:01:28.434Z,100315.34
2023-02-11T00:03:55.991Z,100328.78
2023-02-11T00:06:24.713Z,100325.97
2023-02-11T00:08:52.120Z,100321.47
2023-02-11T00:11:21.261Z,100313.59
2023-02-11T00:13:49.304Z,100319.78
2023-02-11T00:16:20.003Z,100306.81
2023-02-11T00:18:47.831Z,100318.22
2023-02-11T00:21:21.723Z,100310.06
2023-02-11T00:23:49.149Z,100307.88
2023-02-11T00:26:23.093Z,100304.97
2023-02-11T00:28:51.262Z,100307.38
2023-02-11T00:31:20.756Z,100310.34
2023-02-11T00:33:49.019Z,100308.66
2023-02-11T00:36:22.990Z,100308.22
2023-02-11T00:38:52.472Z,100303.28
2023-02-11T00:41:20.407Z,100301.44
2023-02-11T00:43:47.798Z,100304.47
2023-02-11T00:46:15.838Z,100305.56
2023-02-11T00:48:43.519Z,100309.78
2023-02-11T00:51:11.230Z,100305.13
2023-02-11T00:53:38.781Z,100301.88
2023-02-11T00:56:06.512Z,100301.88
2023-02-11T00:58:34.062Z,100286.25
2023-02-11T01:01:01.522Z,100287.81
2023-02-11T01:03:28.966Z,100280.91
2023-02-11T01:05:56.314Z,100273.06
2023-02-11T01:08:23.609Z,100271.84
2023-02-11T01:11:00.257Z,100263.47
2023-02-11T01:13:27.932Z,100255.13
2023-02-11T01:15:55.940Z,100256.81
2023-02-11T01:18:23.776Z,100263.78
2023-02-11T01:20:52.829Z,100258.72
2023-02-11T01:23:20.827Z,100257.38
2023-02-11T01:25:48.638Z,100259.34
2023-02-11T01:28:27.936Z,100254.63
2023-02-11T01:30:55.528Z,100255.81
2023-02-11T01:33:23.028Z,100269.19
2023-02-11T01:35:50.768Z,100265.34
2023-02-11T01:38:24.113Z,100271.22
2023-02-11T01:41:04.891Z,100275.66
2023-02-11T01:43:36.718Z,100273.44
2023-02-11T01:46:21.316Z,100278.66
2023-02-11T01:48:55.190Z,100275.97
2023-02-11T01:51:33.176Z,100279.72
2023-02-11T01:54:21.883Z,100274.13
2023-02-11T01:57:11.586Z,100269.19
2023-02-11T02:00:02.197Z,100264.56
2023-02-11T02:03:02.996Z,100261.28
2023-02-11T02:05:38.360Z,100264.16
2023-02-11T02:08:35.507Z,100253.00
2023-02-11T02:11:03.542Z,100249.34
2023-02-11T02:13:34.023Z,100250.75
2023-02-11T02:16:02.596Z,100255.41
2023-02-11T02:19:18.992Z,100240.00
2023-02-11T02:22:07.303Z,100242.72
2023-02-11T02:25:10.539Z,100240.47
2023-02-11T02:28:13.319Z,100240.63
2023-02-11T02:31:21.076Z,100219.50
2023-02-11T02:33:56.545Z,100212.75
2023-02-11T02:37:09.568Z,100208.25
2023-02-11T02:39:37.401Z,100190.50
2023-02-11T02:42:05.579Z,100186.88
2023-02-11T02:44:33.181Z,100184.63
2023-02-11T02:47:03.303Z,100188.13
2023-02-11T02:49:30.683Z,100182.69
2023-02-11T02:52:55.938Z,100184.34
2023-02-11T02:55:56.451Z,100181.16
2023-02-11T02:58:58.299Z,100176.91
2023-02-11T03:01:47.006Z,100188.34
2023-02-11T03:04:58.026Z,100190.72
2023-02-11T03:08:09.136Z,100183.53
2023-02-11T03:10:41.822Z,100167.19
2023-02-11T03:13:09.241Z,100166.31
2023-02-11T03:15:44.151Z,100171.34
2023-02-11T03:18:16.027Z,100176.28
2023-02-11T03:20:47.728Z,100171.41
2023-02-11T03:23:23.953Z,100171.34
2023-02-11T03:25:57.875Z,100165.75
2023-02-11T03:28:40.653Z,100165.06
2023-02-11T03:31:22.435Z,100164.81
2023-02-11T03:34:03.791Z,100168.75
2023-02-11T03:36:45.919Z,100165.09
2023-02-11T03:39:20.042Z,100159.72
2023-02-11T03:41:49.279Z,100171.19
2023-02-11T03:44:17.142Z,100170.22
2023-02-11T03:46:50.929Z,100178.88
2023-02-11T03:49:20.445Z,100187.84
2023-02-11T03:51:51.395Z,100196.81
2023-02-11T03:54:24.886Z,100192.44
2023-02-11T03:56:55.392Z,100203.28
2023-02-11T03:59:23.002Z,100198.38
2023-02-11T04:01:50.928Z,100196.81
2023-02-11T04:04:18.735Z,100186.50
2023-02-11T04:06:46.293Z,100184.75
2023-02-11T04:09:14.939Z,100195.47
2023-02-11T04:11:42.476Z,100191.69
2023-02-11T04:14:09.716Z,100185.94
2023-02-11T04:16:37.011Z,100181.19
2023-02-11T04:19:04.566Z,100175.97
2023-02-11T04:21:31.846Z,100184.59
2023-02-11T04:23:59.122Z,100193.88
2023-02-11T04:26:26.413Z,100190.38
2023-02-11T04:28:53.672Z,100185.94
2023-02-11T04:31:21.039Z,100190.16
2023-02-11T04:33:48.441Z,100186.59
2023-02-11T04:36:15.729Z,100187.03
2023-02-11T04:38:42.991Z,100183.22
2023-02-11T04:41:10.488Z,100178.63
2023-02-11T04:43:37.719Z,100174.84
2023-02-11T04:46:05.116Z,100174.94
2023-02-11T04:48:32.689Z,100177.41
2023-02-11T04:50:59.967Z,100179.34
2023-02-11T04:53:27.240Z,100174.31
2023-02-11T04:55:54.504Z,100172.81
2023-02-11T04:58:21.956Z,100174.41
2023-02-11T05:00:49.221Z,100172.31
2023-02-11T05:03:16.738Z,100164.81
2023-02-11T05:05:44.214Z,100153.94
2023-02-11T05:08:12.086Z,100150.03
2023-02-11T05:10:39.478Z,100140.75
2023-02-11T05:13:06.773Z,100147.97
2023-02-11T05:15:34.027Z,100137.75
2023-02-11T05:18:01.281Z,100135.22
2023-02-11T05:20:28.601Z,100131.41
2023-02-11T05:22:55.895Z,100127.13
2023-02-11T05:25:23.197Z,100121.25
2023-02-11T05:27:50.517Z,100127.00
2023-02-11T05:30:17.925Z,100120.34
2023-02-11T05:32:45.203Z,100124.34
2023-02-11T05:35:12.509Z,100129.34
2023-02-11T05:37:39.718Z,100139.38
2023-02-11T05:40:07.446Z,100133.38
2023-02-11T05:42:34.728Z,100129.88
2023-02-11T05:45:02.214Z,100121.72
2023-02-11T05:47:29.657Z,100115.25
2023-02-11T05:49:56.957Z,100116.53
2023-02-11T05:52:24.662Z,100118.69
2023-02-11T05:54:51.967Z,100128.16
2023-02-11T05:57:19.255Z,100137.53
2023-02-11T05:59:46.522Z,100140.81
2023-02-11T06:02:13.880Z,100149.03
2023-02-11T06:04:41.814Z,100150.72
2023-02-11T06:07:09.117Z,100153.41
2023-02-11T06:09:37.714Z,100156.09
2023-02-11T06:12:05.008Z,100150.28
2023-02-11T06:14:34.106Z,100158.06
2023-02-11T06:17:01.650Z,100153.78
2023-02-11T06:19:28.962Z,100158.66
2023-02-11T06:21:57.197Z,100149.00
2023-02-11T06:24:51.114Z,100152.94
2023-02-11T06:27:12.557Z,100151.75
2023-02-11T06:29:39.834Z,100143.25
2023-02-11T06:32:10.068Z,100145.19
2023-02-11T06:34:43.408Z,100138.16
2023-02-11T06:37:10.917Z,100145.25
2023-02-11T06:39:38.182Z,100136.09
2023-02-11T06:42:07.889Z,100132.56
2023-02-11T06:44:35.259Z,100142.44
2023-02-11T06:47:02.826Z,100146.53
2023-02-11T06:49:30.124Z,100144.59
2023-02-11T06:51:57.389Z,100137.59
2023-02-11T06:54:24.822Z,100145.97
2023-02-11T06:56:52.079Z,100146.16
2023-02-11T06:59:20.733Z,100151.50
2023-02-11T07:01:48.518Z,100145.50
2023-02-11T07:04:16.032Z,100149.47
2023-02-11T07:06:43.376Z,100151.06
2023-02-11T07:09:10.744Z,100152.38
2023-02-11T07:11:37.996Z,100150.34
2023-02-11T07:14:10.612Z,100145.06
2023-02-11T07:16:39.040Z,100146.09
2023-02-11T07:19:05.936Z,100136.00
2023-02-11T07:21:33.416Z,100133.63
2023-02-11T07:24:00.865Z,100136.94
2023-02-11T07:26:28.988Z,100136.66
2023-02-11T07:28:56.429Z,100137.47
2023-02-11T07:31:27.434Z,100148.44
2023-02-11T07:33:59.057Z,100149.13
2023-02-11T07:36:27.498Z,100150.84
2023-02-11T07:38:54.789Z,100140.38
2023-02-11T07:41:24.541Z,100137.84
2023-02-11T07:43:52.057Z,100139.22
2023-02-11T07:46:23.086Z,100134.84
2023-02-11T07:48:50.666Z,100139.53
2023-02-11T07:51:24.236Z,100127.22
2023-02-11T07:53:52.222Z,100136.16
2023-02-11T07:56:21.038Z,100131.72
2023-02-11T07:58:48.526Z,100138.47
2023-02-11T08:01:19.466Z,100132.59
2023-02-11T08:03:46.359Z,100136.38
2023-02-11T08:06:16.587Z,100141.31
2023-02-11T08:08:44.518Z,100133.13
2023-02-11T08:11:16.161Z,100142.03
2023-02-11T08:13:43.723Z,100146.28
2023-02-11T08:16:29.107Z,100153.31
2023-02-11T08:18:58.862Z,100158.28
2023-02-11T08:21:26.394Z,100156.19
2023-02-11T08:23:53.967Z,100170.34
2023-02-11T08:26:24.508Z,100164.78
2023-02-11T08:28:53.406Z,100160.34
2023-02-11T08:31:28.631Z,100157.91
2023-02-11T08:33:58.167Z,100166.34
2023-02-11T08:36:36.675Z,100164.91
2023-02-11T08:39:20.068Z,100160.59
2023-02-11T08:41:53.237Z,100147.41
2023-02-11T08:44:21.423Z,100140.78
2023-02-11T08:46:49.014Z,100131.63
2023-02-11T08:49:16.774Z,100131.28
2023-02-11T08:51:44.624Z,100135.56
2023-02-11T08:54:12.089Z,100143.25
2023-02-11T08:56:39.686Z,100149.81
2023-02-11T08:59:07.509Z,100148.69
2023-02-11T09:01:35.118Z,100142.06
2023-02-11T09:04:05.187Z,100148.38
2023-02-11T09:06:32.747Z,100144.22
2023-02-11T09:09:00.152Z,100136.47
2023-02-11T09:11:34.762Z,100121.84
2023-02-11T09:14:03.940Z,100117.53
2023-02-11T09:16:35.467Z,100100.81
2023-02-11T09:19:05.548Z,100102.44
2023-02-11T09:21:32.958Z,100102.72
2023-02-11T09:24:00.316Z,100104.00
2023-02-11T09:26:31.651Z,100096.72
2023-02-11T09:28:59.446Z,100095.13
2023-02-11T09:31:29.657Z,100084.69
2023-02-11T09:34:04.293Z,100093.31
2023-02-11T09:36:35.295Z,100098.19
2023-02-11T09:39:03.613Z,100103.81
2023-02-11T09:41:37.103Z,100112.66
2023-02-11T09:44:09.009Z,100119.66
2023-02-11T09:46:40.378Z,100124.84
2023-02-11T09:49:10.592Z,100129.06
2023-02-11T09:52:08.311Z,100128.84
2023-02-11T09:54:57.710Z,100132.25
2023-02-11T09:57:32.837Z,100134.22
2023-02-11T10:00:01.152Z,100142.34
2023-02-11T10:02:53.625Z,100143.81
2023-02-11T10:05:39.248Z,100140.75
2023-02-11T10:08:16.929Z,100132.16
2023-02-11T10:10:59.313Z,100141.56
2023-02-11T10:13:34.321Z,100143.84
2023-02-11T10:16:01.757Z,100142.81
2023-02-11T10:18:47.632Z,100151.00
2023-02-11T10:21:25.551Z,100145.13
2023-02-11T10:23:56.287Z,100141.19
2023-02-11T10:26:23.984Z,100149.44
2023-02-11T10:28:53.630Z,100141.16
2023-02-11T10:31:42.268Z,100142.94
2023-02-11T10:34:14.822Z,100136.06
2023-02-11T10:36:44.437Z,100141.53
2023-02-11T10:39:16.434Z,100147.28
2023-02-11T10:41:46.227Z,100136.50
2023-02-11T10:44:25.759Z,100133.91
2023-02-11T10:46:54.448Z,100132.00
2023-02-11T10:49:42.342Z,100131.47
2023-02-11T10:52:26.072Z,100126.59
2023-02-11T10:55:25.714Z,100120.19
2023-02-11T10:58:01.884Z,100112.03
2023-02-11T11:00:43.267Z,100118.53
2023-02-11T11:03:23.472Z,100103.72
2023-02-11T11:06:02.706Z,100092.38
2023-02-11T11:08:59.432Z,100096.94
2023-02-11T11:11:27.164Z,100096.72
2023-02-11T11:14:00.598Z,100099.03
2023-02-11T11:16:35.737Z,100105.13
2023-02-11T11:19:08.697Z,100104.13
2023-02-11T11:21:45.377Z,100105.53
2023-02-11T11:24:27.931Z,100099.56
2023-02-11T11:27:00.872Z,100091.91
2023-02-11T11:30:08.676Z,100087.56
2023-02-11T11:32:37.110Z,100099.00
2023-02-11T11:35:20.038Z,100091.84
2023-02-11T11:37:54.462Z,100092.50
2023-02-11T11:40:25.892Z,100094.84
2023-02-11T11:43:12.711Z,100092.09
2023-02-11T11:45:43.598Z,100080.47
2023-02-11T11:48:27.063Z,100086.91
2023-02-11T11:51:00.345Z,100075.38
2023-02-11T11:53:40.957Z,100055.34
2023-02-11T11:56:39.508Z,100048.09
2023-02-11T11:59:16.543Z,100052.41
2023-02-11T12:02:11.285Z,100066.31
2023-02-11T12:04:42.596Z,100074.75
2023-02-11T12:08:17.987Z,100079.94
2023-02-11T12:11:13.864Z,100084.72
2023-02-11T12:14:03.683Z,100083.44
2023-02-11T12:16:37.189Z,100092.75
2023-02-11T12:19:19.073Z,100083.63
2023-02-11T12:22:11.066Z,100081.53
2023-02-11T12:25:20.598Z,100081.50
2023-02-11T12:28:07.955Z,100082.78
2023-02-11T12:31:33.033Z,100077.75
2023-02-11T12:34:32.543Z,100088.97
2023-02-11T12:37:09.285Z,100081.91
2023-02-11T12:40:02.872Z,100076.31
2023-02-11T12:42:56.694Z,100073.28
2023-02-11T12:46:02.579Z,100066.91
2023-02-11T12:48:48.995Z,100067.78
2023-02-11T12:51:32.123Z,100067.22
2023-02-11T12:54:47.801Z,100053.13
2023-02-11T12:57:26.173Z,100054.75
2023-02-11T13:00:05.555Z,100042.44
2023-02-11T13:02:56.720Z,100034.66
2023-02-11T13:05:42.928Z,100033.97
2023-02-11T13:08:32.445Z,100033.50
2023-02-11T13:11:04.887Z,100023.00
2023-02-11T13:13:34.473Z,100020.56
2023-02-11T13:16:07.632Z,100016.97
2023-02-11T13:18:56.551Z,100017.50
2023-02-11T13:22:05.859Z,100008.66
2023-02-11T13:24:51.310Z,100004.38
2023-02-11T13:27:58.738Z,99997.56
2023-02-11T13:30:32.866Z,99995.06
2023-02-11T13:33:03.988Z,99991.31
2023-02-11T13:35:38.082Z,99992.28
2023-02-11T13:38:27.582Z,99987.59
2023-02-11T13:41:05.989Z,99990.56
2023-02-11T13:43:37.247Z,99991.94
2023-02-11T13:46:06.476Z,99999.09
2023-02-11T13:48:47.059Z,99998.28
2023-02-11T13:51:16.599Z,99987.44
2023-02-11T13:53:52.394Z,100003.47
2023-02-11T13:56:42.617Z,99987.31
2023-02-11T13:59:30.521Z,99996.75
2023-02-11T14:02:18.533Z,99993.28
2023-02-11T14:05:22.906Z,99993.06
2023-02-11T14:08:29.524Z,99990.13
2023-02-11T14:10:59.643Z,99992.03
2023-02-11T14:13:30.652Z,99986.78
2023-02-11T14:16:37.425Z,99984.69
2023-02-11T14:19:06.032Z,99994.97
2023-02-11T14:21:40.310Z,99987.66
2023-02-11T14:24:11.618Z,99990.00
2023-02-11T14:26:47.731Z,99990.31
2023-02-11T14:29:31.455Z,99995.41
2023-02-11T14:32:05.910Z,100004.56
2023-02-11T14:35:00.413Z,100012.00
2023-02-11T14:37:38.270Z,100010.97
2023-02-11T14:40:19.197Z,100001.22
2023-02-11T14:42:46.572Z,100011.16
2023-02-11T14:45:21.176Z,100014.66
2023-02-11T14:48:19.670Z,100022.09
2023-02-11T14:50:50.477Z,100013.13
2023-02-11T14:53:20.434Z,100011.63
2023-02-11T14:55:56.509Z,100010.16
2023-02-11T14:58:33.877Z,100009.88
2023-02-11T15:01:26.168Z,100008.34
2023-02-11T15:03:56.601Z,100014.66
2023-02-11T15:06:40.336Z,100017.31
2023-02-11T15:09:19.986Z,100018.13
2023-02-11T15:11:51.742Z,100025.59
2023-02-11T15:14:20.083Z,100023.91
2023-02-11T15:16:47.728Z,100020.38
2023-02-11T15:19:34.265Z,100025.59
2023-02-11T15:22:05.998Z,100032.41
2023-02-11T15:24:35.390Z,100036.75
2023-02-11T15:27:16.346Z,100032.81
2023-02-11T15:29:49.291Z,100048.84
2023-02-11T15:32:25.538Z,100053.69
2023-02-11T15:34:56.680Z,100052.09
2023-02-11T15:37:26.838Z,100054.56
2023-02-11T15:39:54.790Z,100051.22
2023-02-11T15:42:34.084Z,100047.09
2023-02-11T15:45:13.587Z,100055.63
2023-02-11T15:47:48.085Z,100049.78
2023-02-11T15:50:30.466Z,100058.44
2023-02-11T15:53:21.057Z,100063.09
2023-02-11T15:55:50.655Z,100060.81
2023-02-11T15:58:18.043Z,100064.69
2023-02-11T16:00:52.161Z,100060.81
2023-02-11T16:03:22.406Z,100078.41
2023-02-11T16:05:50.010Z,100073.84
2023-02-11T16:08:26.844Z,100080.94
2023-02-11T16:11:02.404Z,100073.75
2023-02-11T16:13:35.669Z,100085.13
2023-02-11T16:16:24.623Z,100079.84
2023-02-11T16:19:04.813Z,100091.06
2023-02-11T16:21:39.121Z,100085.56
2023-02-11T16:24:08.148Z,100093.44
2023-02-11T16:26:43.482Z,100084.22
2023-02-11T16:29:16.755Z,100089.78
2023-02-11T16:31:46.262Z,100102.59
2023-02-11T16:34:19.114Z,100101.06
2023-02-11T16:36:47.557Z,100104.59
2023-02-11T16:39:17.334Z,100099.09
2023-02-11T16:41:44.672Z,100104.03
2023-02-11T16:44:12.052Z,100103.31
2023-02-11T16:46:39.464Z,100102.97
2023-02-11T16:49:10.270Z,100106.31
2023-02-11T16:51:40.374Z,100110.50
2023-02-11T16:54:09.965Z,100111.56
2023-02-11T16:56:37.347Z,100109.38
2023-02-11T16:59:04.639Z,100116.91
2023-02-11T17:01:32.684Z,100118.03
2023-02-11T17:04:00.309Z,100115.19
2023-02-11T17:06:28.049Z,100117.19
2023-02-11T17:08:55.312Z,100119.94
2023-02-11T17:11:22.600Z,100116.91
2023-02-11T17:13:49.884Z,100124.78
2023-02-11T17:16:22.532Z,100116.75
2023-02-11T17:18:50.569Z,100118.91
2023-02-11T17:21:18.379Z,100118.69
2023-02-11T17:23:45.994Z,100110.06
2023-02-11T17:26:13.314Z,100119.31
2023-02-11T17:28:40.599Z,100119.13
2023-02-11T17:31:09.289Z,100114.28
2023-02-11T17:33:37.713Z,100122.06
2023-02-11T17:36:09.769Z,100123.19
2023-02-11T17:38:38.146Z,100126.47
2023-02-11T17:41:05.794Z,100127.91
2023-02-11T17:43:33.184Z,100133.59
2023-02-11T17:46:00.561Z,100133.72
2023-02-11T17:48:27.871Z,100149.81
2023-02-11T17:50:55.186Z,100146.09
2023-02-11T17:53:22.616Z,100138.88
2023-02-11T17:55:50.219Z,100142.88
2023-02-11T17:58:17.957Z,100148.44
2023-02-11T18:00:45.475Z,100161.00
2023-02-11T18:03:12.744Z,100159.22
2023-02-11T18:05:40.088Z,100172.25
2023-02-11T18:08:07.745Z,100157.56
2023-02-11T18:10:35.163Z,100163.63
2023-02-11T18:13:02.621Z,100167.94
2023-02-11T18:15:29.973Z,100160.56
2023-02-11T18:17:57.292Z,100153.69
2023-02-11T18:20:24.611Z,100149.31
2023-02-11T18:22:52.018Z,100154.16
2023-02-11T18:25:19.425Z,100149.31
2023-02-11T18:27:46.850Z,100156.50
2023-02-11T18:30:20.520Z,100150.00
2023-02-11T18:32:48.013Z,100159.88
2023-02-11T18:35:15.988Z,100161.56
2023-02-11T18:37:43.526Z,100164.31
2023-02-11T18:40:12.164Z,100153.66
2023-02-11T18:42:39.930Z,100167.97
2023-02-11T18:45:09.590Z,100169.69
2023-02-11T18:47:38.310Z,100178.03
2023-02-11T18:50:07.376Z,100176.44
2023-02-11T18:52:38.015Z,100174.03
2023-02-11T18:55:06.978Z,100181.75
2023-02-11T18:57:34.331Z,100174.72
2023-02-11T19:00:01.744Z,100175.47
2023-02-11T19:02:29.316Z,100167.09
2023-02-11T19:04:56.660Z,100164.50
2023-02-11T19:07:25.296Z,100159.47
2023-02-11T19:09:52.625Z,100164.19
2023-02-11T19:12:19.914Z,100175.41
2023-02-11T19:14:47.274Z,100172.22
2023-02-11T19:17:14.541Z,100171.53
2023-02-11T19:19:41.911Z,100174.59
2023-02-11T19:22:10.769Z,100167.75
2023-02-11T19:24:39.922Z,100174.72
2023-02-11T19:27:07.207Z,100180.28
2023-02-11T19:29:35.085Z,100173.00
2023-02-11T19:32:05.692Z,100179.44
2023-02-11T19:34:33.473Z,100168.47
2023-02-11T19:37:01.771Z,100163.97
2023-02-11T19:39:31.397Z,100160.94
2023-02-11T19:41:58.889Z,100168.88
2023-02-11T19:44:26.232Z,100159.47
2023-02-11T19:46:54.669Z,100159.44
2023-02-11T19:49:26.217Z,100165.97
2023-02-11T19:51:55.732Z,100169.91
2023-02-11T19:54:23.176Z,100169.72
2023-02-11T19:56:50.522Z,100173.50
2023-02-11T19:59:17.976Z,100174.47
2023-02-11T20:01:47.751Z,100179.19
2023-02-11T20:04:16.892Z,100176.13
2023-02-11T20:06:44.508Z,100178.75
2023-02-11T20:09:14.398Z,100179.59
2023-02-11T20:11:42.532Z,100186.03
2023-02-11T20:14:14.581Z,100174.88
2023-02-11T20:16:48.552Z,100180.44
2023-02-11T20:19:21.589Z,100172.16
2023-02-11T20:21:53.384Z,100180.09
2023-02-11T20:24:21.490Z,100176.16
2023-02-11T20:26:49.402Z,100168.72
2023-02-11T20:29:20.505Z,100165.59
2023-02-11T20:31:49.693Z,100173.31
2023-02-11T20:34:17.714Z,100178.38
2023-02-11T20:36:51.564Z,100183.34
2023-02-11T20:39:21.712Z,100174.72
2023-02-11T20:41:49.701Z,100174.09
2023-02-11T20:44:17.438Z,100172.09
2023-02-11T20:46:46.589Z,100171.88
2023-02-11T20:49:21.769Z,100174.50
2023-02-11T20:51:49.817Z,100180.13
2023-02-11T20:54:21.674Z,100183.25
2023-02-11T20:56:51.055Z,100186.88
2023-02-11T21:02:26.921Z,100180.28
2023-02-11T21:04:54.987Z,100192.19
2023-02-11T21:07:22.692Z,100191.25
2023-02-11T21:09:50.087Z,100199.75
2023-02-11T21:12:20.289Z,100202.19
2023-02-11T21:14:57.426Z,100194.59
2023-02-11T21:17:26.553Z,100203.53
2023-02-11T21:19:53.969Z,100199.47
2023-02-11T21:22:21.290Z,100196.59
2023-02-11T21:24:48.644Z,100200.19
2023-02-11T21:27:16.089Z,100209.66
2023-02-11T21:29:53.853Z,100214.91
2023-02-11T21:32:21.931Z,100213.84
2023-02-11T21:34:49.344Z,100209.19
2023-02-11T21:37:16.816Z,100212.34
2023-02-11T21:39:44.124Z,100216.72
2023-02-11T21:42:11.748Z,100212.50
2023-02-11T21:44:39.161Z,100215.88
2023-02-11T21:47:06.767Z,100214.31
2023-02-11T21:49:37.008Z,100213.53
2023-02-11T21:52:04.873Z,100208.56
2023-02-11T21:54:32.836Z,100209.78
2023-02-11T21:57:02.890Z,100215.03
2023-02-11T21:59:31.757Z,100212.41
2023-02-11T22:01:59.084Z,100210.94
2023-02-11T22:04:26.597Z,100221.97
2023-02-11T22:06:53.931Z,100216.66
2023-02-11T22:09:21.235Z,100221.78
2023-02-11T22:11:49.223Z,100218.13
2023-02-11T22:14:17.060Z,100220.38
2023-02-11T22:16:47.730Z,100228.09
2023-02-11T22:19:18.768Z,100220.25
2023-02-11T22:21:46.074Z,100226.03
2023-02-11T22:24:13.384Z,100220.78
2023-02-11T22:26:41.007Z,100225.13
2023-02-11T22:29:08.363Z,100232.59
2023-02-11T22:31:35.949Z,100235.63
2023-02-11T22:34:04.599Z,100232.13
2023-02-11T22:36:40.339Z,100226.38
2023-02-11T22:39:11.590Z,100234.06
2023-02-11T22:41:40.042Z,100221.00
2023-02-11T22:44:07.560Z,100225.97
2023-02-11T22:46:34.933Z,100225.59
2023-02-11T22:49:02.413Z,100215.44
2023-02-11T22:51:30.582Z,100210.81
2023-02-11T22:54:00.834Z,100212.50
2023-02-11T22:56:30.953Z,100224.06
2023-02-11T22:59:04.149Z,100227.03
2023-02-11T23:01:31.990Z,100222.75
2023-02-11T23:04:04.025Z,100219.97
2023-02-11T23:06:31.590Z,100210.22
2023-02-11T23:08:59.376Z,100214.41
2023-02-11T23:11:29.506Z,100218.41
2023-02-11T23:13:57.139Z,100216.28
2023-02-11T23:16:28.244Z,100223.13
2023-02-11T23:18:56.063Z,100217.59
2023-02-11T23:21:27.906Z,100221.56
2023-02-11T23:24:00.506Z,100219.38
2023-02-11T23:26:28.657Z,100223.97
2023-02-11T23:28:56.245Z,100222.41
2023-02-11T23:31:26.206Z,100231.09
2023-02-11T23:33:53.569Z,100229.31
2023-02-11T23:36:21.908Z,100226.44
2023-02-11T23:38:49.442Z,100227.91
2023-02-11T23:41:17.004Z,100227.09
2023-02-11T23:43:44.703Z,100235.75
2023-02-11T23:46:12.476Z,100247.38
2023-02-11T23:48:40.461Z,100235.44
2023-02-11T23:51:09.724Z,100238.31
2023-02-11T23:53:38.264Z,100238.53
2023-02-11T23:56:15.155Z,100248.13
2023-02-11T23:58:44.684Z,100248.19
